KCOS/COS METAR and TAF weather

Enter ICAO airport designator
Station Type Date Time Source
KCOS METAR 2020/07/09 06:54 UTC NOAA

KCOS 090654Z 33011KT 10SM FEW110 SCT150 23/01 A3005 RMK AO2 SLP059 T02330006 403560128


Station Type Date Time Source
KCOS Decoded METAR 2020/07/09 06:54 UTC NOAA

COLORADO SPRINGS MUNI, CO, United States (KCOS) 38-49N 104-43W 1856M
Jul 09, 2020 - 02:54 AM EDT / 2020.07.09 0654 UTC
Wind: from the NNW (330 degrees) at 13 MPH (11 KT):0
Visibility: 10 mile(s):0
Sky conditions: partly cloudy
Temperature: 73.9 F (23.3 C)
Dew Point: 33.1 F (0.6 C)
Relative Humidity: 22%
Pressure (altimeter): 30.05 in. Hg (1017 hPa)
ob: KCOS 090654Z 33011KT 10SM FEW110 SCT150 23/01 A3005 RMK AO2 SLP059 T02330006 403560128
cycle: 7

Station Type Date Time Source
KCOS TAF 2020/07/09 06:39 UTC NOAA

TAF KCOS 090536Z 0906/1006 35010KT P6SM SCT150
FM091700 16012KT P6SM SCT150
FM100100 08009KT P6SM FEW200

Example: see airport list